Time;durP1;ratioP1;P1;durP2;ratioP2;P2;SDS_P1;SDS_P2;PMS_P1;PMS_P2;Temp;Humidity;BMP_temperature;BMP_pressure;BME280_temperature;BME280_humidity;BME280_pressure;Samples;Min_cycle;Max_cycle;Signal;HPM_P1;HPM_P2
2023/03/22 00:00:48;;;;;;;;;9.50;9.00;;;;;12.45;70.89;100812.88;5032842;28;46194;-66
2023/03/22 00:03:14;;;;;;;;;9.00;8.25;;;;;12.62;70.73;100826.78;5017586;28;45667;-66
2023/03/22 00:05:40;;;;;;;;;8.25;8.25;;;;;12.63;70.01;100828.53;5035174;28;45403;-67
2023/03/22 00:08:06;;;;;;;;;9.75;8.50;;;;;12.67;70.44;100829.38;5015656;28;45912;-67
2023/03/22 00:10:32;;;;;;;;;10.25;6.50;;;;;12.69;70.00;100833.78;5037291;28;45941;-67
2023/03/22 00:12:59;;;;;;;;;8.25;8.25;;;;;12.67;70.03;100826.75;5033529;28;45423;-68
2023/03/22 00:15:25;;;;;;;;;9.75;7.00;;;;;12.70;69.46;100829.41;5034374;28;45561;-65
2023/03/22 00:17:51;;;;;;;;;7.25;5.50;;;;;12.71;69.41;100828.50;5032771;28;45782;-66
2023/03/22 00:20:18;;;;;;;;;11.50;7.50;;;;;12.65;69.27;100815.41;5033925;28;45411;-66
2023/03/22 00:22:45;;;;;;;;;8.25;6.00;;;;;12.66;69.05;100822.41;5032992;28;45544;-67
2023/03/22 00:25:10;;;;;;;;;7.50;5.00;;;;;12.65;69.11;100823.28;5019913;28;45418;-65
2023/03/22 00:27:36;;;;;;;;;7.33;5.67;;;;;12.63;69.00;100815.41;5038528;28;45446;-66
2023/03/22 00:30:03;;;;;;;;;8.00;6.00;;;;;12.65;68.50;100808.41;5036052;28;45395;-68
2023/03/22 00:32:29;;;;;;;;;5.00;5.00;;;;;12.54;68.27;100788.31;5019936;28;45450;-65
2023/03/22 00:34:54;;;;;;;;;7.25;5.00;;;;;12.59;68.50;100803.16;5037295;28;45642;-67
2023/03/22 00:37:20;;;;;;;;;6.00;5.25;;;;;12.63;68.55;100802.28;5037971;28;45530;-65
2023/03/22 00:39:45;;;;;;;;;5.00;5.00;;;;;12.64;68.22;100795.25;5036861;28;46453;-67
2023/03/22 00:42:11;;;;;;;;;6.50;5.25;;;;;12.69;67.84;100797.00;5033398;28;45324;-67
2023/03/22 00:44:36;;;;;;;;;6.25;4.50;;;;;12.69;67.80;100788.22;5032205;28;45412;-67
2023/03/22 00:47:02;;;;;;;;;5.25;3.25;;;;;12.69;67.15;100783.84;5032684;28;46062;-67
2023/03/22 00:49:28;;;;;;;;;8.00;6.00;;;;;12.68;67.56;100784.72;5033280;28;46047;-68
2023/03/22 00:51:54;;;;;;;;;5.50;5.00;;;;;12.65;67.00;100782.13;5035969;28;45443;-68
2023/03/22 00:54:20;;;;;;;;;6.00;4.50;;;;;12.63;67.23;100780.38;5037185;28;45574;-67
2023/03/22 00:56:45;;;;;;;;;7.25;3.00;;;;;12.63;67.04;100781.25;5033674;28;46341;-67
2023/03/22 00:59:12;;;;;;;;;4.75;2.00;;;;;12.68;66.94;100789.97;5034025;28;45964;-67
2023/03/22 01:01:39;;;;;;;;;5.75;4.00;;;;;12.63;67.20;100783.88;5019912;28;45426;-69
2023/03/22 01:04:05;;;;;;;;;5.33;2.67;;;;;12.67;66.61;100785.63;5033971;28;45873;-67
2023/03/22 01:06:32;;;;;;;;;8.33;3.67;;;;;12.54;66.41;100764.66;5032922;28;45491;-67
2023/03/22 01:08:57;;;;;;;;;3.50;3.50;;;;;12.59;66.57;100769.00;5032776;28;45533;-67
2023/03/22 01:11:24;;;;;;;;;5.25;4.00;;;;;12.56;66.79;100766.41;5015231;28;45450;-68
2023/03/22 01:13:50;;;;;;;;;5.33;3.67;;;;;12.57;66.52;100765.50;5030610;28;45466;-68
2023/03/22 01:16:16;;;;;;;;;2.67;2.00;;;;;12.48;66.01;100747.16;5033340;28;45432;-68
2023/03/22 01:18:43;;;;;;;;;3.00;2.00;;;;;12.56;65.94;100758.53;5014941;28;45963;-67
2023/03/22 01:21:09;;;;;;;;;3.00;2.00;;;;;12.55;66.03;100745.38;5031829;28;45554;-67
2023/03/22 01:23:36;;;;;;;;;7.50;3.50;;;;;12.57;65.74;100751.50;5033297;28;45436;-66
2023/03/22 01:26:02;;;;;;;;;6.67;5.67;;;;;12.51;65.65;100740.16;5032205;28;45495;-68
2023/03/22 01:28:29;;;;;;;;;12.00;7.50;;;;;12.55;65.95;100743.63;5032884;28;45516;-68
2023/03/22 01:30:55;;;;;;;;;17.75;13.00;;;;;12.49;65.62;100734.03;5034692;28;46401;-68
2023/03/22 01:33:20;;;;;;;;;12.25;10.75;;;;;12.33;66.35;100719.25;5034494;28;45502;-69
2023/03/22 01:35:46;;;;;;;;;9.50;8.25;;;;;12.16;66.22;100715.84;5032475;28;45560;-69
2023/03/22 01:38:12;;;;;;;;;10.75;8.25;;;;;12.18;66.72;100720.19;5032038;28;47864;-67
2023/03/22 01:40:37;;;;;;;;;11.75;9.75;;;;;12.19;66.74;100711.44;5032803;28;46110;-67
2023/03/22 01:43:03;;;;;;;;;9.75;9.25;;;;;12.19;66.66;100707.94;5031669;28;46446;-66
2023/03/22 01:45:39;;;;;;;;;11.25;6.50;;;;;12.27;66.40;100712.28;5033531;28;45394;-68
2023/03/22 01:48:14;;;;;;;;;9.00;5.00;;;;;12.21;66.24;100711.44;5031371;28;45877;-66
2023/03/22 01:50:44;;;;;;;;;5.75;4.00;;;;;12.14;66.59;100707.09;5031750;28;45863;-67
2023/03/22 01:53:13;;;;;;;;;5.33;2.67;;;;;12.07;66.86;100698.38;5031954;28;45596;-68
2023/03/22 01:55:39;;;;;;;;;3.25;2.25;;;;;11.98;67.15;100686.19;5049993;28;45377;-69
2023/03/22 01:58:05;;;;;;;;;3.00;2.00;;;;;12.07;67.27;100699.22;5036014;28;46172;-67
2023/03/22 02:00:32;;;;;;;;;2.50;1.50;;;;;11.96;66.77;100687.03;5015515;28;45386;-67
2023/03/22 02:02:58;;;;;;;;;3.67;2.33;;;;;11.96;67.16;100687.94;5032052;28;45478;-67
2023/03/22 02:05:24;;;;;;;;;1.33;1.33;;;;;11.97;67.14;100675.69;5014236;28;45422;-67
2023/03/22 02:07:51;;;;;;;;;4.75;3.00;;;;;12.00;67.45;100671.25;5031980;28;45717;-69
2023/03/22 02:10:25;;;;;;;;;4.50;2.00;;;;;11.97;67.67;100673.91;5033255;28;45569;-68
2023/03/22 02:13:01;;;;;;;;;3.25;1.00;;;;;11.98;67.76;100675.69;5011487;28;45759;-65
2023/03/22 02:15:45;;;;;;;;;2.00;2.00;;;;;11.93;67.89;100660.81;5033966;28;45392;-68
2023/03/22 02:18:32;;;;;;;;;1.50;1.50;;;;;11.88;67.92;100652.97;5014570;28;46311;-68
2023/03/22 02:21:16;;;;;;;;;2.25;2.00;;;;;11.85;68.28;100655.56;5031497;28;45601;-66
2023/03/22 02:24:04;;;;;;;;;2.50;1.25;;;;;11.84;68.04;100659.94;5033093;28;45419;-67
2023/03/22 02:27:03;;;;;;;;;2.75;2.00;;;;;11.81;67.99;100659.94;5034498;28;45540;-67
2023/03/22 02:29:38;;;;;;;;;3.25;2.00;;;;;11.85;68.33;100645.06;5033824;28;45423;-70
2023/03/22 02:32:12;;;;;;;;;3.00;3.00;;;;;11.82;67.97;100651.22;5033959;28;45399;-67
2023/03/22 02:35:32;;;;;;;;;2.50;2.00;;;;;11.77;67.90;100647.75;5014504;28;45580;-67
2023/03/22 02:38:35;;;;;;;;;3.25;3.00;;;;;11.73;68.42;100645.13;4972854;28;45813;-69
2023/03/22 02:41:19;;;;;;;;;2.33;1.00;;;;;11.67;68.34;100653.88;5015430;28;46907;-67
2023/03/22 02:43:59;;;;;;;;;1.00;1.00;;;;;11.71;68.46;100649.50;5015758;28;45926;-66
2023/03/22 02:46:32;;;;;;;;;2.00;1.00;;;;;11.67;68.43;100656.50;5019420;28;45443;-67
2023/03/22 02:49:10;;;;;;;;;3.50;2.50;;;;;11.62;68.93;100653.91;5037783;28;45487;-67
2023/03/22 02:52:02;;;;;;;;;5.75;2.00;;;;;11.48;68.92;100660.06;5033226;28;45994;-67
2023/03/22 02:54:37;;;;;;;;;5.00;3.50;;;;;11.46;69.29;100653.09;5035548;28;45467;-67
2023/03/22 02:57:12;;;;;;;;;3.00;2.00;;;;;11.40;69.54;100655.72;5036748;28;45470;-66
2023/03/22 02:59:41;;;;;;;;;3.25;2.75;;;;;11.32;69.63;100652.25;5038043;28;45391;-68
2023/03/22 03:02:11;;;;;;;;;3.50;3.00;;;;;11.34;69.62;100652.25;5034500;28;47696;-67
2023/03/22 03:04:43;;;;;;;;;2.75;2.75;;;;;11.37;69.80;100654.88;5032618;28;45437;-67
2023/03/22 03:07:13;;;;;;;;;3.00;3.00;;;;;11.37;69.07;100642.63;5036082;28;45403;-67
2023/03/22 03:09:42;;;;;;;;;3.00;2.00;;;;;11.45;69.81;100659.19;5032993;28;45530;-66
2023/03/22 03:12:20;;;;;;;;;3.75;3.00;;;;;11.51;69.05;100660.94;5015104;28;45652;-66
2023/03/22 03:14:47;;;;;;;;;5.00;2.00;;;;;11.57;69.23;100671.41;5032434;28;45550;-67
2023/03/22 03:17:32;;;;;;;;;2.50;2.25;;;;;11.68;69.04;100666.13;5017701;28;45547;-67
2023/03/22 03:20:07;;;;;;;;;6.25;3.75;;;;;11.74;68.45;100671.34;5015272;28;45809;-67
2023/03/22 03:22:43;;;;;;;;;3.00;3.00;;;;;11.80;68.19;100657.34;5011156;28;47280;-67
2023/03/22 03:25:17;;;;;;;;;3.00;3.00;;;;;11.82;68.34;100653.84;5034260;28;45406;-66
2023/03/22 03:28:02;;;;;;;;;2.75;2.75;;;;;11.76;68.07;100645.97;5037712;28;45372;-67
2023/03/22 03:30:37;;;;;;;;;4.25;2.75;;;;;11.77;68.62;100646.84;5033183;28;45467;-66
2023/03/22 03:33:12;;;;;;;;;5.00;3.00;;;;;11.76;68.30;100647.72;5032828;28;46247;-68
2023/03/22 03:35:47;;;;;;;;;3.00;2.25;;;;;11.80;68.63;100657.34;5034458;28;45395;-68
2023/03/22 03:38:20;;;;;;;;;3.25;2.00;;;;;11.84;68.02;100661.69;5037181;28;45385;-67
2023/03/22 03:40:54;;;;;;;;;4.00;2.25;;;;;11.78;67.85;100651.22;5033283;28;45365;-67
2023/03/22 03:43:21;;;;;;;;;4.50;2.00;;;;;11.77;68.39;100639.88;5033027;28;45463;-67
2023/03/22 03:45:47;;;;;;;;;4.50;3.50;;;;;11.83;68.18;100644.19;5034534;28;45501;-68
2023/03/22 03:48:18;;;;;;;;;2.25;2.00;;;;;11.77;67.67;100639.88;5032790;28;45426;-67
2023/03/22 03:50:45;;;;;;;;;2.00;2.00;;;;;11.90;67.69;100648.56;5035219;28;45375;-66
2023/03/22 03:53:10;;;;;;;;;2.00;2.00;;;;;11.79;67.65;100643.34;5037011;28;45452;-68
2023/03/22 03:55:36;;;;;;;;;2.00;2.00;;;;;11.78;67.99;100649.47;5030572;28;45664;-68
2023/03/22 03:58:02;;;;;;;;;6.25;2.00;;;;;11.81;67.74;100646.81;5014726;28;45863;-67
2023/03/22 04:00:28;;;;;;;;;2.75;2.00;;;;;11.76;67.91;100627.59;5032988;28;45825;-67
2023/03/22 04:02:53;;;;;;;;;3.50;1.50;;;;;11.77;67.69;100639.88;5032424;28;45705;-67
2023/03/22 04:05:19;;;;;;;;;4.75;2.25;;;;;11.78;67.87;100625.84;5032113;28;46266;-68
2023/03/22 04:07:44;;;;;;;;;3.00;2.25;;;;;11.83;67.95;100645.06;5035967;28;45411;-67
2023/03/22 04:10:10;;;;;;;;;4.33;1.00;;;;;11.78;67.76;100644.22;5036132;28;45367;-68
2023/03/22 04:12:35;;;;;;;;;5.00;2.25;;;;;11.82;67.90;100643.34;5032245;28;46460;-67
2023/03/22 04:15:01;;;;;;;;;3.00;2.00;;;;;11.89;67.66;100652.09;5031151;28;45403;-67
2023/03/22 04:17:28;;;;;;;;;2.00;1.00;;;;;11.85;67.41;100651.19;5032569;28;45486;-68
2023/03/22 04:19:55;;;;;;;;;1.75;1.50;;;;;11.73;67.21;100632.88;5036227;28;45488;-68
2023/03/22 04:22:22;;;;;;;;;2.50;1.75;;;;;11.94;67.11;100649.44;5024446;28;45461;-66
2023/03/22 04:24:51;;;;;;;;;1.00;1.00;;;;;12.03;66.98;100652.00;5035099;28;45792;-68
2023/03/22 04:27:18;;;;;;;;;2.00;2.00;;;;;12.06;66.85;100652.88;5035577;28;45590;-67
2023/03/22 04:29:47;;;;;;;;;0.00;0.00;;;;;12.01;67.07;100638.03;5034487;28;45672;-68
2023/03/22 04:32:23;;;;;;;;;3.67;2.00;;;;;12.07;66.96;100644.09;5035560;28;45310;-67
2023/03/22 04:34:50;;;;;;;;;1.33;1.00;;;;;12.09;66.46;100636.22;5035719;28;45557;-67
2023/03/22 04:37:17;;;;;;;;;4.00;2.00;;;;;12.02;66.69;100639.78;5039546;28;45582;-65
2023/03/22 04:39:44;;;;;;;;;5.00;1.00;;;;;11.95;66.86;100609.19;5038638;28;45466;-66
2023/03/22 04:42:10;;;;;;;;;3.00;1.00;;;;;12.10;66.67;100632.72;5034724;28;46130;-67
2023/03/22 04:44:36;;;;;;;;;4.25;2.00;;;;;12.04;66.65;100630.13;5035356;28;45443;-67
2023/03/22 04:47:02;;;;;;;;;1.00;1.00;;;;;11.98;66.64;100625.81;5035269;28;45429;-67
2023/03/22 04:49:27;;;;;;;;;4.00;2.00;;;;;11.84;66.44;100611.81;5035922;28;45566;-67
2023/03/22 04:51:54;;;;;;;;;3.67;2.00;;;;;11.88;67.09;100626.72;5033083;28;47057;-69
2023/03/22 04:54:21;;;;;;;;;2.33;1.00;;;;;11.88;67.18;100622.31;5035292;28;45458;-67
2023/03/22 04:56:47;;;;;;;;;1.00;1.00;;;;;11.83;67.38;100629.31;5035405;28;45402;-67
2023/03/22 04:59:13;;;;;;;;;1.33;0.67;;;;;11.70;67.43;100611.91;5037030;28;45431;-68
2023/03/22 05:01:41;;;;;;;;;2.00;1.00;;;;;11.82;67.80;100630.22;5039453;28;46139;-67
2023/03/22 05:04:06;;;;;;;;;3.00;1.50;;;;;11.82;67.69;100630.22;5021231;28;45414;-66
2023/03/22 05:06:32;;;;;;;;;1.00;1.00;;;;;11.86;67.33;100626.72;5035285;28;45760;-67
2023/03/22 05:08:59;;;;;;;;;3.00;2.00;;;;;11.71;68.17;100621.50;5035512;28;45451;-67
2023/03/22 05:11:26;;;;;;;;;2.67;1.00;;;;;11.78;67.73;100617.97;5035043;28;45707;-66
2023/03/22 05:13:56;;;;;;;;;2.75;1.00;;;;;11.69;67.79;100612.78;5035284;28;45466;-66
2023/03/22 05:16:23;;;;;;;;;3.00;0.33;;;;;11.69;67.93;100604.91;5038222;28;45458;-68
2023/03/22 05:18:53;;;;;;;;;1.33;1.33;;;;;11.75;67.78;100628.50;5038055;28;45422;-67
2023/03/22 05:21:27;;;;;;;;;2.25;1.25;;;;;11.62;68.19;100630.28;5032822;28;45497;-66
2023/03/22 05:23:54;;;;;;;;;2.00;1.50;;;;;11.57;68.28;100623.31;5034673;28;45507;-67
2023/03/22 05:26:23;;;;;;;;;1.50;1.00;;;;;11.53;68.81;100630.34;5036496;28;45419;-67
2023/03/22 05:28:50;;;;;;;;;4.00;2.50;;;;;11.54;68.56;100631.22;5016236;28;45370;-69
2023/03/22 05:31:16;;;;;;;;;3.00;1.00;;;;;11.54;68.82;100626.84;5016103;28;48090;-67
2023/03/22 05:33:45;;;;;;;;;7.25;2.25;;;;;11.62;68.69;100632.03;5035327;28;45859;-65
2023/03/22 05:36:10;;;;;;;;;4.50;1.75;;;;;11.51;69.19;100618.09;5038315;28;45447;-69
2023/03/22 05:38:37;;;;;;;;;4.25;2.00;;;;;11.45;69.40;100617.25;5036472;28;45383;-66
2023/03/22 05:41:02;;;;;;;;;3.00;2.75;;;;;11.40;69.51;100600.66;5033976;28;46095;-67
2023/03/22 05:43:28;;;;;;;;;4.00;2.75;;;;;11.53;69.59;100621.59;5037319;28;45583;-65
2023/03/22 05:45:53;;;;;;;;;6.25;2.50;;;;;11.59;69.71;100626.81;5038106;28;45476;-68
2023/03/22 05:48:19;;;;;;;;;3.25;3.25;;;;;11.46;69.81;100613.75;5034359;28;45586;-67
2023/03/22 05:50:45;;;;;;;;;2.50;2.00;;;;;11.52;69.36;100615.47;5033848;28;45502;-68
2023/03/22 05:53:11;;;;;;;;;2.50;2.25;;;;;11.58;69.29;100614.56;5034072;28;45633;-67
2023/03/22 05:55:37;;;;;;;;;4.00;3.00;;;;;11.67;69.67;100630.28;5034655;28;45383;-67
2023/03/22 05:58:03;;;;;;;;;4.25;3.25;;;;;11.62;69.49;100627.66;5034268;28;45340;-66
2023/03/22 06:00:30;;;;;;;;;5.25;3.00;;;;;11.63;69.68;100618.06;5033692;28;45514;-67
2023/03/22 06:03:02;;;;;;;;;6.00;4.25;;;;;11.70;69.19;100622.41;5038095;28;45466;-66
2023/03/22 06:05:31;;;;;;;;;4.00;4.00;;;;;11.77;68.92;100617.97;5036670;28;45467;-67
2023/03/22 06:07:58;;;;;;;;;6.25;3.75;;;;;11.67;69.24;100617.16;5034543;28;45394;-66
2023/03/22 06:10:25;;;;;;;;;3.75;3.50;;;;;11.67;69.72;100611.91;5033970;28;45454;-67
2023/03/22 06:12:51;;;;;;;;;4.00;4.00;;;;;11.71;69.58;100607.53;5034022;28;45537;-68
2023/03/22 06:15:17;;;;;;;;;7.50;4.25;;;;;11.79;69.24;100611.88;5033860;28;45384;-66
2023/03/22 06:17:43;;;;;;;;;6.50;4.25;;;;;11.76;69.42;100606.63;5034821;28;45435;-67
2023/03/22 06:20:11;;;;;;;;;7.00;4.50;;;;;11.78;69.28;100611.88;5038161;28;45420;-68
2023/03/22 06:22:38;;;;;;;;;6.00;5.50;;;;;11.63;69.97;100604.94;5018286;28;45541;-67
2023/03/22 06:25:05;;;;;;;;;4.25;3.75;;;;;11.57;70.26;100612.84;5038028;28;45447;-68
2023/03/22 06:27:31;;;;;;;;;8.00;5.00;;;;;11.29;69.98;100567.47;5033977;28;45284;-67
2023/03/22 06:29:57;;;;;;;;;5.00;5.00;;;;;11.63;70.02;100610.19;5032410;28;45528;-67
2023/03/22 06:32:22;;;;;;;;;6.50;3.75;;;;;11.71;69.84;100618.03;5034306;28;45737;-67
2023/03/22 06:34:49;;;;;;;;;3.75;3.75;;;;;11.76;69.20;100629.38;5038081;28;45340;-68
2023/03/22 06:37:15;;;;;;;;;6.75;3.50;;;;;11.74;69.30;100626.75;5017475;28;45542;-67
2023/03/22 06:39:41;;;;;;;;;3.25;3.25;;;;;11.71;69.80;100620.66;5031622;28;46985;-67
2023/03/22 06:42:07;;;;;;;;;5.75;5.25;;;;;11.75;69.57;100631.13;5031629;28;46210;-66
2023/03/22 06:44:32;;;;;;;;;5.00;3.50;;;;;11.79;69.52;100639.84;5037550;28;45408;-67
2023/03/22 06:46:58;;;;;;;;;7.25;5.00;;;;;11.81;69.64;100646.81;5036372;28;45378;-67
2023/03/22 06:49:23;;;;;;;;;9.25;5.00;;;;;11.67;69.03;100617.16;5035462;28;46304;-67
2023/03/22 06:51:49;;;;;;;;;5.75;5.25;;;;;11.81;69.34;100652.06;5032781;28;45830;-68
2023/03/22 06:54:15;;;;;;;;;9.00;4.00;;;;;11.81;68.98;100638.94;5033729;28;45344;-67
2023/03/22 06:56:41;;;;;;;;;3.00;3.00;;;;;11.78;69.21;100652.09;5033726;28;45317;-67
2023/03/22 06:59:07;;;;;;;;;4.00;4.00;;;;;11.76;68.95;100653.84;5032840;28;45431;-68
2023/03/22 07:01:32;;;;;;;;;7.25;5.00;;;;;11.79;69.28;100658.22;5034282;28;45439;-68
2023/03/22 07:03:58;;;;;;;;;8.00;4.50;;;;;11.78;69.86;100659.97;5036317;28;45279;-67
2023/03/22 07:06:24;;;;;;;;;5.25;5.25;;;;;11.88;69.23;100673.94;5037826;28;45470;-66
2023/03/22 07:08:49;;;;;;;;;8.00;5.00;;;;;11.86;68.87;100657.31;5037081;28;45475;-67
2023/03/22 07:11:15;;;;;;;;;4.25;4.00;;;;;11.84;69.16;100659.94;5037173;28;45177;-67
2023/03/22 07:13:40;;;;;;;;;6.25;5.00;;;;;11.84;69.33;100678.31;5032850;28;45356;-66
2023/03/22 07:16:07;;;;;;;;;5.50;4.00;;;;;11.79;69.19;100651.22;5031910;28;45823;-66
2023/03/22 07:18:32;;;;;;;;;5.25;4.00;;;;;11.87;69.07;100666.97;5031412;28;47515;-68
2023/03/22 07:20:58;;;;;;;;;8.50;6.00;;;;;11.91;68.88;100662.56;5032576;28;45443;-69
2023/03/22 07:23:23;;;;;;;;;7.50;4.75;;;;;11.89;69.49;100673.09;5032960;28;45402;-68
2023/03/22 07:25:50;;;;;;;;;6.75;4.00;;;;;11.91;68.83;100665.19;5033042;28;45576;-67
2023/03/22 07:28:16;;;;;;;;;6.00;4.75;;;;;11.91;69.30;100668.69;5032928;28;45585;-66
2023/03/22 07:30:42;;;;;;;;;10.25;6.50;;;;;11.85;69.34;100659.06;5032757;28;45567;-67
2023/03/22 07:33:09;;;;;;;;;4.75;4.00;;;;;11.88;69.24;100671.31;5016409;28;45403;-68
2023/03/22 07:35:36;;;;;;;;;7.75;5.00;;;;;11.92;69.42;100669.56;5019396;28;45554;-68
2023/03/22 07:38:03;;;;;;;;;5.25;5.00;;;;;11.94;68.89;100671.31;5036878;28;45572;-68
2023/03/22 07:40:29;;;;;;;;;4.00;3.50;;;;;11.92;68.86;100664.31;5033223;28;45447;-69
2023/03/22 07:42:55;;;;;;;;;5.75;4.25;;;;;11.88;68.82;100671.31;5033412;28;45586;-67
2023/03/22 07:45:22;;;;;;;;;8.75;3.75;;;;;11.82;69.25;100669.59;5035559;28;45281;-67
2023/03/22 07:47:47;;;;;;;;;4.25;4.00;;;;;11.91;69.16;100679.19;5032261;28;46218;-66
2023/03/22 07:50:13;;;;;;;;;5.75;4.50;;;;;11.84;69.51;100666.94;5032447;28;45492;-66
2023/03/22 07:52:40;;;;;;;;;4.00;3.00;;;;;11.96;69.47;100677.44;5034109;28;45563;-69
2023/03/22 07:55:07;;;;;;;;;7.50;4.50;;;;;11.97;68.94;100679.16;5038186;28;45359;-68
2023/03/22 07:57:35;;;;;;;;;5.75;4.00;;;;;12.01;69.25;100685.28;5034541;28;45539;-69
2023/03/22 08:00:00;;;;;;;;;7.25;4.50;;;;;12.01;69.47;100691.41;5035654;28;45412;-68
2023/03/22 08:02:26;;;;;;;;;4.00;4.00;;;;;12.04;69.57;100685.25;5037688;28;45614;-69
2023/03/22 08:04:53;;;;;;;;;8.00;4.25;;;;;12.02;69.57;100697.50;5037141;28;45702;-67
2023/03/22 08:07:20;;;;;;;;;8.50;5.75;;;;;11.91;69.95;100676.56;5035934;28;45662;-67
2023/03/22 08:09:46;;;;;;;;;5.75;5.25;;;;;12.06;69.51;100687.00;5035587;28;45810;-67
2023/03/22 08:12:12;;;;;;;;;3.25;1.50;;;;;12.11;69.91;100686.97;5017932;28;45386;-68
2023/03/22 08:14:38;;;;;;;;;7.25;4.50;;;;;11.96;69.82;100651.19;5036187;28;45431;-68
2023/03/22 08:17:04;;;;;;;;;5.50;4.75;;;;;12.18;69.12;100687.81;5035823;28;46606;-69
2023/03/22 08:19:30;;;;;;;;;5.75;4.00;;;;;12.18;69.50;100698.31;5036982;28;45525;-66
2023/03/22 08:21:56;;;;;;;;;5.00;5.00;;;;;12.27;69.27;100696.53;5040027;28;45375;-67
2023/03/22 08:24:22;;;;;;;;;7.75;3.75;;;;;12.17;69.24;100663.31;5035325;28;45531;-68
2023/03/22 08:26:49;;;;;;;;;4.33;4.00;;;;;12.42;68.66;100690.28;5035444;28;46259;-68
2023/03/22 08:29:15;;;;;;;;;9.00;4.00;;;;;12.41;68.55;100688.56;5035656;28;45479;-67
2023/03/22 08:31:41;;;;;;;;;5.33;5.00;;;;;12.51;68.52;100698.13;5037352;28;45630;-67
2023/03/22 08:34:07;;;;;;;;;7.67;4.00;;;;;12.52;68.58;100694.59;5036501;28;45522;-68
2023/03/22 08:36:33;;;;;;;;;8.33;7.00;;;;;12.40;68.03;100685.94;5035268;28;46524;-67
2023/03/22 08:39:00;;;;;;;;;10.00;5.00;;;;;12.40;68.77;100696.44;5035316;28;45465;-67
2023/03/22 08:41:26;;;;;;;;;3.75;2.50;;;;;12.38;68.66;100691.19;5035258;28;45423;-67
2023/03/22 08:43:51;;;;;;;;;5.00;3.67;;;;;12.45;68.67;100689.41;5034884;28;45474;-67
2023/03/22 08:46:17;;;;;;;;;5.00;4.50;;;;;12.48;68.46;100678.88;5035037;28;45951;-68
2023/03/22 08:48:49;;;;;;;;;5.25;3.50;;;;;12.58;68.98;100682.31;5017147;28;45376;-68
2023/03/22 08:51:24;;;;;;;;;5.75;5.00;;;;;12.56;69.19;100674.44;5021110;28;45490;-68
2023/03/22 08:53:49;;;;;;;;;3.00;3.00;;;;;12.62;69.06;100682.25;5035326;28;45576;-65
2023/03/22 08:56:19;;;;;;;;;8.00;5.50;;;;;12.62;68.93;100684.91;5024088;28;47076;-67
2023/03/22 08:58:46;;;;;;;;;7.33;5.00;;;;;12.70;69.25;100688.34;5021583;28;45897;-67
2023/03/22 09:01:13;;;;;;;;;5.00;5.00;;;;;12.68;68.90;100665.59;5039694;28;45464;-69
2023/03/22 09:03:39;;;;;;;;;4.50;4.25;;;;;12.56;69.48;100660.44;5033672;28;45992;-67
2023/03/22 09:06:05;;;;;;;;;7.50;4.00;;;;;12.51;69.60;100674.47;5034216;28;45451;-67
2023/03/22 09:08:32;;;;;;;;;6.75;5.00;;;;;12.45;69.76;100661.38;5034457;28;45750;-67
2023/03/22 09:10:58;;;;;;;;;6.50;5.25;;;;;12.48;70.35;100665.72;5035297;28;45405;-67
2023/03/22 09:13:23;;;;;;;;;7.25;5.25;;;;;12.51;70.65;100668.34;5037182;28;45342;-66
2023/03/22 09:15:51;;;;;;;;;6.00;4.00;;;;;12.55;70.60;100670.06;5022819;28;45588;-67
2023/03/22 09:18:17;;;;;;;;;7.00;6.25;;;;;12.52;70.77;100667.47;5038275;28;45592;-67
2023/03/22 09:20:44;;;;;;;;;10.33;4.33;;;;;12.54;70.72;100665.69;5029263;28;45504;-67
2023/03/22 09:23:11;;;;;;;;;4.75;4.75;;;;;12.54;71.16;100659.56;5038752;28;45426;-68
2023/03/22 09:25:37;;;;;;;;;8.00;4.75;;;;;12.47;71.17;100664.00;5035453;28;46253;-68
2023/03/22 09:28:03;;;;;;;;;4.25;4.25;;;;;12.59;71.74;100668.28;5034107;28;45438;-66
2023/03/22 09:30:28;;;;;;;;;5.00;4.67;;;;;12.60;71.74;100665.66;5037874;28;45873;-67
2023/03/22 09:32:54;;;;;;;;;6.00;5.00;;;;;12.49;71.81;100656.97;5032192;28;45735;-69
2023/03/22 09:35:22;;;;;;;;;7.00;6.50;;;;;12.48;71.88;100670.97;5033260;28;46171;-68
2023/03/22 09:37:48;;;;;;;;;5.33;5.33;;;;;12.39;72.17;100650.06;5035142;28;45833;-66
2023/03/22 09:40:14;;;;;;;;;4.75;4.75;;;;;12.40;72.16;100647.41;5040072;28;45355;-69
2023/03/22 09:42:51;;;;;;;;;11.75;7.00;;;;;12.34;72.43;100657.97;5039515;28;45364;-70
2023/03/22 09:45:29;;;;;;;;;8.00;5.00;;;;;12.13;73.11;100632.72;5038608;28;45503;-69
2023/03/22 09:47:56;;;;;;;;;8.75;7.00;;;;;12.29;72.86;100649.22;5037484;28;45454;-67
2023/03/22 09:50:26;;;;;;;;;4.50;4.50;;;;;12.20;73.47;100644.91;5034552;28;45682;-66
2023/03/22 09:52:53;;;;;;;;;11.25;6.25;;;;;12.24;73.95;100646.66;5035339;28;45537;-67
2023/03/22 09:55:31;;;;;;;;;8.00;4.50;;;;;12.40;73.40;100646.53;5015857;28;46996;-68
2023/03/22 09:58:12;;;;;;;;;7.50;4.50;;;;;12.43;73.59;100642.16;5037833;28;45488;-67
2023/03/22 10:00:42;;;;;;;;;8.00;5.50;;;;;12.43;73.75;100636.91;5038356;28;45379;-69
2023/03/22 10:03:32;;;;;;;;;9.25;5.50;;;;;12.39;73.95;100636.94;5039082;28;45506;-68
2023/03/22 10:06:17;;;;;;;;;7.25;7.25;;;;;12.36;74.13;100622.03;5038255;28;45980;-68
2023/03/22 10:09:24;;;;;;;;;5.00;5.00;;;;;12.44;74.12;100617.63;5037568;28;45494;-68
2023/03/22 10:12:06;;;;;;;;;9.50;8.00;;;;;12.49;74.21;100623.69;4999482;28;45512;-69
2023/03/22 10:14:39;;;;;;;;;8.00;8.00;;;;;12.36;74.08;100595.78;5033620;28;45657;-69
2023/03/22 10:17:16;;;;;;;;;9.25;8.00;;;;;12.43;74.89;100602.75;5032290;28;48180;-68
2023/03/22 11:06:31;;;;;;;;;10.00;8.50;;;;;11.71;77.55;100565.56;5067307;28;45529;-68
2023/03/22 11:09:11;;;;;;;;;10.75;8.25;;;;;12.00;77.36;100578.53;5050324;28;45515;-71
2023/03/22 11:11:52;;;;;;;;;12.00;8.25;;;;;12.33;76.88;100584.44;5051417;28;45398;-68
2023/03/22 11:14:35;;;;;;;;;7.75;7.25;;;;;12.70;75.96;100580.63;5050954;28;45604;-69
2023/03/22 11:17:15;;;;;;;;;9.25;7.25;;;;;12.92;74.43;100568.13;5041823;28;46244;-65
2023/03/22 11:19:51;;;;;;;;;9.25;8.75;;;;;13.16;73.34;100582.75;5049689;28;45374;-67
2023/03/22 11:22:33;;;;;;;;;11.25;8.50;;;;;13.22;72.43;100573.94;5050046;28;45533;-67
2023/03/22 11:25:00;;;;;;;;;12.75;7.25;;;;;13.26;71.93;100569.50;5040823;28;45426;-67
2023/03/22 11:27:31;;;;;;;;;8.25;7.25;;;;;13.33;71.29;100576.47;5054229;28;46785;-66
2023/03/22 11:30:07;;;;;;;;;8.25;8.00;;;;;13.43;71.34;100580.75;5054307;28;45547;-69
2023/03/22 11:32:38;;;;;;;;;12.75;10.00;;;;;13.47;70.58;100574.53;5052613;28;45431;-68
2023/03/22 11:35:19;;;;;;;;;9.75;9.00;;;;;13.40;70.61;100570.25;5051863;28;45328;-68
2023/03/22 11:37:47;;;;;;;;;7.00;7.00;;;;;13.40;71.42;100557.09;5049683;28;46056;-66
2023/03/22 11:40:35;;;;;;;;;7.67;7.67;;;;;13.65;70.79;100573.44;5049334;28;45458;-69
2023/03/22 11:43:19;;;;;;;;;8.33;7.33;;;;;13.63;69.71;100571.72;5046330;28;45540;-67
2023/03/22 11:45:48;;;;;;;;;9.33;7.33;;;;;13.71;69.64;100559.31;5035519;28;45415;-69
2023/03/22 11:48:21;;;;;;;;;9.00;8.00;;;;;13.81;68.64;100560.97;5046371;28;46354;-68
2023/03/22 11:50:48;;;;;;;;;9.33;7.33;;;;;13.68;68.91;100547.09;5052577;28;45433;-66
2023/03/22 11:53:17;;;;;;;;;9.67;7.33;;;;;13.69;68.50;100559.38;5049730;28;45504;-67
2023/03/22 11:55:44;;;;;;;;;4.67;4.67;;;;;13.77;68.36;100548.72;5049320;28;45434;-69
2023/03/22 11:58:42;;;;;;;;;8.33;8.33;;;;;13.91;68.25;100552.03;5047959;28;46941;-68
2023/03/22 12:01:15;;;;;;;;;6.33;5.67;;;;;14.07;68.01;100547.41;5048628;28;45679;-67
2023/03/22 12:03:45;;;;;;;;;8.00;7.67;;;;;14.24;67.51;100547.16;5064720;28;45544;-67
2023/03/22 12:06:38;;;;;;;;;7.67;6.67;;;;;14.38;66.03;100563.59;5048410;28;45609;-70
2023/03/22 12:09:24;;;;;;;;;6.00;6.00;;;;;14.42;66.36;100564.41;5048497;28;46361;-65
2023/03/22 12:11:54;;;;;;;;;8.33;6.67;;;;;14.42;65.25;100549.44;5049019;28;45820;-67
2023/03/22 12:14:28;;;;;;;;;10.33;5.67;;;;;14.49;65.46;100552.84;5049197;28;45714;-68
2023/03/22 12:17:10;;;;;;;;;7.33;6.00;;;;;14.53;65.47;100562.47;5043571;28;45450;-67
2023/03/22 12:19:45;;;;;;;;;6.00;6.00;;;;;14.43;64.70;100548.56;5035514;28;45583;-69
2023/03/22 12:22:16;;;;;;;;;6.00;6.00;;;;;14.50;64.75;100561.63;5035297;28;45878;-66